sensor_id;sensor_type;location;lat;lon;timestamp;P1;durP1;ratioP1;P2;durP2;ratioP2
64543;SDS011;50936;51.660;5.616;2022-07-23T00:01:24;7.18;;;4.15;;
64543;SDS011;50936;51.660;5.616;2022-07-23T00:03:53;8.18;;;4.22;;
64543;SDS011;50936;51.660;5.616;2022-07-23T00:06:21;8.75;;;4.43;;
64543;SDS011;50936;51.660;5.616;2022-07-23T00:08:49;8.52;;;4.55;;
64543;SDS011;50936;51.660;5.616;2022-07-23T00:11:17;9.48;;;4.75;;
64543;SDS011;50936;51.660;5.616;2022-07-23T00:13:44;8.73;;;4.68;;
64543;SDS011;50936;51.660;5.616;2022-07-23T00:16:11;10.65;;;4.65;;
64543;SDS011;50936;51.660;5.616;2022-07-23T00:18:38;9.43;;;4.80;;
64543;SDS011;50936;51.660;5.616;2022-07-23T00:21:05;7.32;;;3.88;;
64543;SDS011;50936;51.660;5.616;2022-07-23T00:23:33;7.72;;;3.92;;
64543;SDS011;50936;51.660;5.616;2022-07-23T00:26:00;7.53;;;3.90;;
64543;SDS011;50936;51.660;5.616;2022-07-23T00:28:26;6.32;;;3.60;;
64543;SDS011;50936;51.660;5.616;2022-07-23T00:30:54;7.13;;;3.67;;
64543;SDS011;50936;51.660;5.616;2022-07-23T00:33:21;8.68;;;4.10;;
64543;SDS011;50936;51.660;5.616;2022-07-23T00:35:48;6.63;;;3.42;;
64543;SDS011;50936;51.660;5.616;2022-07-23T00:38:14;6.97;;;3.33;;
64543;SDS011;50936;51.660;5.616;2022-07-23T00:40:41;7.53;;;3.38;;
64543;SDS011;50936;51.660;5.616;2022-07-23T00:43:08;5.22;;;3.40;;
64543;SDS011;50936;51.660;5.616;2022-07-23T00:45:35;6.68;;;3.40;;
64543;SDS011;50936;51.660;5.616;2022-07-23T00:48:03;6.30;;;3.60;;
64543;SDS011;50936;51.660;5.616;2022-07-23T00:50:30;10.98;;;3.78;;
64543;SDS011;50936;51.660;5.616;2022-07-23T00:52:57;6.38;;;3.42;;
64543;SDS011;50936;51.660;5.616;2022-07-23T00:55:24;7.88;;;3.38;;
64543;SDS011;50936;51.660;5.616;2022-07-23T00:57:51;6.35;;;3.72;;
64543;SDS011;50936;51.660;5.616;2022-07-23T01:00:21;7.95;;;3.63;;
64543;SDS011;50936;51.660;5.616;2022-07-23T01:02:48;6.25;;;3.60;;
64543;SDS011;50936;51.660;5.616;2022-07-23T01:05:15;5.60;;;3.40;;
64543;SDS011;50936;51.660;5.616;2022-07-23T01:07:44;5.90;;;3.40;;
64543;SDS011;50936;51.660;5.616;2022-07-23T01:10:12;9.15;;;3.78;;
64543;SDS011;50936;51.660;5.616;2022-07-23T01:12:59;6.68;;;3.85;;
64543;SDS011;50936;51.660;5.616;2022-07-23T01:15:33;6.03;;;4.10;;
64543;SDS011;50936;51.660;5.616;2022-07-23T01:18:03;7.05;;;3.88;;
64543;SDS011;50936;51.660;5.616;2022-07-23T01:20:33;8.43;;;3.70;;
64543;SDS011;50936;51.660;5.616;2022-07-23T01:23:01;6.78;;;3.70;;
64543;SDS011;50936;51.660;5.616;2022-07-23T01:25:28;8.32;;;4.28;;
64543;SDS011;50936;51.660;5.616;2022-07-23T01:27:58;8.40;;;3.78;;
64543;SDS011;50936;51.660;5.616;2022-07-23T01:30:26;9.30;;;4.13;;
64543;SDS011;50936;51.660;5.616;2022-07-23T01:32:54;8.25;;;4.50;;
64543;SDS011;50936;51.660;5.616;2022-07-23T01:35:21;8.15;;;3.65;;
64543;SDS011;50936;51.660;5.616;2022-07-23T01:37:50;6.57;;;4.00;;
64543;SDS011;50936;51.660;5.616;2022-07-23T01:40:18;5.70;;;3.85;;
64543;SDS011;50936;51.660;5.616;2022-07-23T01:42:47;8.68;;;4.00;;
64543;SDS011;50936;51.660;5.616;2022-07-23T01:45:15;8.20;;;4.13;;
64543;SDS011;50936;51.660;5.616;2022-07-23T01:47:47;9.93;;;4.07;;
64543;SDS011;50936;51.660;5.616;2022-07-23T01:50:15;11.73;;;4.53;;
64543;SDS011;50936;51.660;5.616;2022-07-23T01:52:47;7.55;;;4.10;;
64543;SDS011;50936;51.660;5.616;2022-07-23T01:55:14;7.60;;;4.07;;
64543;SDS011;50936;51.660;5.616;2022-07-23T01:57:46;6.05;;;4.28;;
64543;SDS011;50936;51.660;5.616;2022-07-23T02:00:14;7.80;;;4.47;;
64543;SDS011;50936;51.660;5.616;2022-07-23T02:02:46;8.18;;;4.50;;
64543;SDS011;50936;51.660;5.616;2022-07-23T02:05:13;7.78;;;4.18;;
64543;SDS011;50936;51.660;5.616;2022-07-23T02:07:40;8.23;;;4.45;;
64543;SDS011;50936;51.660;5.616;2022-07-23T02:10:08;9.00;;;4.70;;
64543;SDS011;50936;51.660;5.616;2022-07-23T02:12:36;8.38;;;4.65;;
64543;SDS011;50936;51.660;5.616;2022-07-23T02:15:04;7.40;;;4.30;;
64543;SDS011;50936;51.660;5.616;2022-07-23T02:17:35;7.15;;;4.53;;
64543;SDS011;50936;51.660;5.616;2022-07-23T02:20:02;11.40;;;4.70;;
64543;SDS011;50936;51.660;5.616;2022-07-23T02:22:29;9.35;;;4.60;;
64543;SDS011;50936;51.660;5.616;2022-07-23T02:24:56;11.15;;;4.85;;
64543;SDS011;50936;51.660;5.616;2022-07-23T02:27:23;9.35;;;4.90;;
64543;SDS011;50936;51.660;5.616;2022-07-23T02:29:51;8.15;;;4.75;;
64543;SDS011;50936;51.660;5.616;2022-07-23T02:32:18;7.45;;;5.10;;
64543;SDS011;50936;51.660;5.616;2022-07-23T02:34:45;8.10;;;5.00;;
64543;SDS011;50936;51.660;5.616;2022-07-23T02:37:12;10.10;;;4.78;;
64543;SDS011;50936;51.660;5.616;2022-07-23T02:39:40;9.55;;;5.28;;
64543;SDS011;50936;51.660;5.616;2022-07-23T02:42:06;14.32;;;5.43;;
64543;SDS011;50936;51.660;5.616;2022-07-23T02:44:36;9.82;;;5.15;;
64543;SDS011;50936;51.660;5.616;2022-07-23T02:47:03;8.15;;;4.80;;
64543;SDS011;50936;51.660;5.616;2022-07-23T02:49:32;12.63;;;5.30;;
64543;SDS011;50936;51.660;5.616;2022-07-23T02:52:02;8.98;;;5.35;;
64543;SDS011;50936;51.660;5.616;2022-07-23T02:54:30;11.90;;;5.07;;
64543;SDS011;50936;51.660;5.616;2022-07-23T02:56:57;8.70;;;4.75;;
64543;SDS011;50936;51.660;5.616;2022-07-23T02:59:25;12.63;;;5.40;;
64543;SDS011;50936;51.660;5.616;2022-07-23T03:01:52;8.30;;;5.03;;
64543;SDS011;50936;51.660;5.616;2022-07-23T03:04:19;11.32;;;4.88;;
64543;SDS011;50936;51.660;5.616;2022-07-23T03:06:46;7.75;;;4.32;;
64543;SDS011;50936;51.660;5.616;2022-07-23T03:09:13;8.88;;;4.65;;
64543;SDS011;50936;51.660;5.616;2022-07-23T03:11:40;10.00;;;4.97;;
64543;SDS011;50936;51.660;5.616;2022-07-23T03:14:07;8.45;;;4.90;;
64543;SDS011;50936;51.660;5.616;2022-07-23T03:16:35;8.27;;;5.18;;
64543;SDS011;50936;51.660;5.616;2022-07-23T03:19:02;7.97;;;5.25;;
64543;SDS011;50936;51.660;5.616;2022-07-23T03:21:32;10.32;;;5.40;;
64543;SDS011;50936;51.660;5.616;2022-07-23T03:23:59;10.35;;;5.40;;
64543;SDS011;50936;51.660;5.616;2022-07-23T03:26:26;9.32;;;5.20;;
64543;SDS011;50936;51.660;5.616;2022-07-23T03:28:53;12.20;;;5.65;;
64543;SDS011;50936;51.660;5.616;2022-07-23T03:31:19;9.65;;;5.40;;
64543;SDS011;50936;51.660;5.616;2022-07-23T03:33:47;9.30;;;5.40;;
64543;SDS011;50936;51.660;5.616;2022-07-23T03:36:13;9.05;;;5.28;;
64543;SDS011;50936;51.660;5.616;2022-07-23T03:38:43;9.10;;;4.90;;
64543;SDS011;50936;51.660;5.616;2022-07-23T03:41:10;9.88;;;4.93;;
64543;SDS011;50936;51.660;5.616;2022-07-23T03:43:37;8.77;;;4.95;;
64543;SDS011;50936;51.660;5.616;2022-07-23T03:46:04;9.30;;;6.05;;
64543;SDS011;50936;51.660;5.616;2022-07-23T03:48:31;10.88;;;5.47;;
64543;SDS011;50936;51.660;5.616;2022-07-23T03:50:58;8.82;;;5.28;;
64543;SDS011;50936;51.660;5.616;2022-07-23T03:53:25;9.02;;;5.43;;
64543;SDS011;50936;51.660;5.616;2022-07-23T03:55:52;8.75;;;5.22;;
64543;SDS011;50936;51.660;5.616;2022-07-23T03:58:19;12.60;;;5.22;;
64543;SDS011;50936;51.660;5.616;2022-07-23T04:00:45;11.70;;;5.63;;
64543;SDS011;50936;51.660;5.616;2022-07-23T04:03:13;10.30;;;5.53;;
64543;SDS011;50936;51.660;5.616;2022-07-23T04:05:41;10.57;;;5.57;;
64543;SDS011;50936;51.660;5.616;2022-07-23T04:08:12;10.32;;;5.70;;
64543;SDS011;50936;51.660;5.616;2022-07-23T04:10:42;12.98;;;5.80;;
64543;SDS011;50936;51.660;5.616;2022-07-23T04:13:10;10.73;;;5.60;;
64543;SDS011;50936;51.660;5.616;2022-07-23T04:15:38;10.15;;;6.10;;
64543;SDS011;50936;51.660;5.616;2022-07-23T04:18:05;8.40;;;5.40;;
64543;SDS011;50936;51.660;5.616;2022-07-23T04:20:42;10.38;;;5.57;;
64543;SDS011;50936;51.660;5.616;2022-07-23T04:23:10;12.77;;;6.20;;
64543;SDS011;50936;51.660;5.616;2022-07-23T04:25:39;11.57;;;5.88;;
64543;SDS011;50936;51.660;5.616;2022-07-23T04:28:06;12.05;;;6.25;;
64543;SDS011;50936;51.660;5.616;2022-07-23T04:30:33;10.05;;;6.18;;
64543;SDS011;50936;51.660;5.616;2022-07-23T04:33:00;10.65;;;5.38;;
64543;SDS011;50936;51.660;5.616;2022-07-23T04:35:27;8.43;;;5.43;;
64543;SDS011;50936;51.660;5.616;2022-07-23T04:38:02;11.23;;;5.35;;
64543;SDS011;50936;51.660;5.616;2022-07-23T04:40:30;9.80;;;5.28;;
64543;SDS011;50936;51.660;5.616;2022-07-23T04:42:57;8.50;;;4.97;;
64543;SDS011;50936;51.660;5.616;2022-07-23T04:45:24;13.73;;;5.72;;
64543;SDS011;50936;51.660;5.616;2022-07-23T04:47:51;8.65;;;5.20;;
64543;SDS011;50936;51.660;5.616;2022-07-23T04:50:18;10.40;;;5.50;;
64543;SDS011;50936;51.660;5.616;2022-07-23T04:55:17;11.13;;;4.90;;
64543;SDS011;50936;51.660;5.616;2022-07-23T04:57:44;9.80;;;4.82;;
64543;SDS011;50936;51.660;5.616;2022-07-23T05:00:11;8.38;;;4.78;;
64543;SDS011;50936;51.660;5.616;2022-07-23T05:02:39;11.65;;;4.93;;
64543;SDS011;50936;51.660;5.616;2022-07-23T05:05:06;9.20;;;5.22;;
64543;SDS011;50936;51.660;5.616;2022-07-23T05:07:33;11.30;;;5.05;;
64543;SDS011;50936;51.660;5.616;2022-07-23T05:10:00;9.88;;;5.55;;
64543;SDS011;50936;51.660;5.616;2022-07-23T05:12:28;9.65;;;5.63;;
64543;SDS011;50936;51.660;5.616;2022-07-23T05:14:55;10.25;;;5.93;;
64543;SDS011;50936;51.660;5.616;2022-07-23T05:17:22;10.10;;;6.15;;
64543;SDS011;50936;51.660;5.616;2022-07-23T05:19:50;8.63;;;5.05;;
64543;SDS011;50936;51.660;5.616;2022-07-23T05:22:23;10.77;;;5.80;;
64543;SDS011;50936;51.660;5.616;2022-07-23T05:24:50;11.20;;;5.50;;
64543;SDS011;50936;51.660;5.616;2022-07-23T05:27:17;10.43;;;5.40;;
64543;SDS011;50936;51.660;5.616;2022-07-23T05:29:43;10.45;;;5.68;;
64543;SDS011;50936;51.660;5.616;2022-07-23T05:32:11;12.15;;;5.88;;
64543;SDS011;50936;51.660;5.616;2022-07-23T05:34:44;9.52;;;5.32;;
64543;SDS011;50936;51.660;5.616;2022-07-23T05:37:11;8.88;;;5.28;;
64543;SDS011;50936;51.660;5.616;2022-07-23T05:39:37;10.63;;;5.80;;
64543;SDS011;50936;51.660;5.616;2022-07-23T05:42:05;10.32;;;5.70;;
64543;SDS011;50936;51.660;5.616;2022-07-23T05:44:32;9.98;;;5.18;;
64543;SDS011;50936;51.660;5.616;2022-07-23T05:47:00;7.65;;;4.88;;
64543;SDS011;50936;51.660;5.616;2022-07-23T05:49:28;9.55;;;5.60;;
64543;SDS011;50936;51.660;5.616;2022-07-23T05:52:28;11.30;;;5.80;;
64543;SDS011;50936;51.660;5.616;2022-07-23T05:55:14;9.07;;;5.22;;
64543;SDS011;50936;51.660;5.616;2022-07-23T05:57:41;9.48;;;5.70;;
64543;SDS011;50936;51.660;5.616;2022-07-23T06:00:08;9.48;;;5.30;;
64543;SDS011;50936;51.660;5.616;2022-07-23T06:02:41;11.48;;;6.40;;
64543;SDS011;50936;51.660;5.616;2022-07-23T06:05:09;9.20;;;5.63;;
64543;SDS011;50936;51.660;5.616;2022-07-23T06:07:39;10.95;;;5.82;;
64543;SDS011;50936;51.660;5.616;2022-07-23T06:10:06;10.13;;;5.25;;
64543;SDS011;50936;51.660;5.616;2022-07-23T06:12:34;12.68;;;5.38;;
64543;SDS011;50936;51.660;5.616;2022-07-23T06:15:02;9.40;;;5.38;;
64543;SDS011;50936;51.660;5.616;2022-07-23T06:17:31;9.73;;;4.75;;
64543;SDS011;50936;51.660;5.616;2022-07-23T06:19:58;10.02;;;4.95;;
64543;SDS011;50936;51.660;5.616;2022-07-23T06:22:25;11.75;;;5.10;;
64543;SDS011;50936;51.660;5.616;2022-07-23T06:24:52;10.75;;;4.65;;
64543;SDS011;50936;51.660;5.616;2022-07-23T06:27:20;9.15;;;4.70;;
64543;SDS011;50936;51.660;5.616;2022-07-23T06:29:52;9.18;;;4.75;;
64543;SDS011;50936;51.660;5.616;2022-07-23T06:32:19;10.85;;;4.75;;
64543;SDS011;50936;51.660;5.616;2022-07-23T06:34:47;7.72;;;4.15;;
64543;SDS011;50936;51.660;5.616;2022-07-23T06:37:14;10.02;;;4.13;;
64543;SDS011;50936;51.660;5.616;2022-07-23T06:39:45;9.63;;;4.25;;
64543;SDS011;50936;51.660;5.616;2022-07-23T06:42:12;9.40;;;3.75;;
64543;SDS011;50936;51.660;5.616;2022-07-23T06:44:43;5.95;;;3.30;;
64543;SDS011;50936;51.660;5.616;2022-07-23T06:47:13;8.60;;;4.03;;
64543;SDS011;50936;51.660;5.616;2022-07-23T06:49:41;6.82;;;3.75;;
64543;SDS011;50936;51.660;5.616;2022-07-23T06:52:07;7.95;;;3.67;;
64543;SDS011;50936;51.660;5.616;2022-07-23T06:54:34;6.95;;;3.55;;
64543;SDS011;50936;51.660;5.616;2022-07-23T06:57:01;7.35;;;3.85;;
64543;SDS011;50936;51.660;5.616;2022-07-23T06:59:29;6.63;;;3.50;;
64543;SDS011;50936;51.660;5.616;2022-07-23T07:01:56;10.25;;;4.10;;
64543;SDS011;50936;51.660;5.616;2022-07-23T07:04:24;7.40;;;3.50;;
64543;SDS011;50936;51.660;5.616;2022-07-23T07:06:51;7.15;;;3.03;;
64543;SDS011;50936;51.660;5.616;2022-07-23T07:09:18;10.18;;;3.53;;
64543;SDS011;50936;51.660;5.616;2022-07-23T07:11:45;9.13;;;3.17;;
64543;SDS011;50936;51.660;5.616;2022-07-23T07:14:11;5.28;;;2.50;;
64543;SDS011;50936;51.660;5.616;2022-07-23T07:16:38;6.57;;;2.95;;
64543;SDS011;50936;51.660;5.616;2022-07-23T07:19:05;6.75;;;2.80;;
64543;SDS011;50936;51.660;5.616;2022-07-23T07:21:32;5.38;;;2.53;;
64543;SDS011;50936;51.660;5.616;2022-07-23T07:23:59;6.55;;;2.60;;
64543;SDS011;50936;51.660;5.616;2022-07-23T07:26:26;5.57;;;2.83;;
64543;SDS011;50936;51.660;5.616;2022-07-23T07:28:53;7.65;;;2.90;;
64543;SDS011;50936;51.660;5.616;2022-07-23T07:31:20;7.97;;;2.60;;
64543;SDS011;50936;51.660;5.616;2022-07-23T07:33:47;5.20;;;2.40;;
64543;SDS011;50936;51.660;5.616;2022-07-23T07:36:14;8.82;;;2.30;;
64543;SDS011;50936;51.660;5.616;2022-07-23T07:38:44;5.50;;;2.10;;
64543;SDS011;50936;51.660;5.616;2022-07-23T07:41:11;7.18;;;2.30;;
64543;SDS011;50936;51.660;5.616;2022-07-23T07:43:40;6.82;;;2.60;;
64543;SDS011;50936;51.660;5.616;2022-07-23T07:46:06;8.95;;;2.67;;
64543;SDS011;50936;51.660;5.616;2022-07-23T07:48:39;5.32;;;2.35;;
64543;SDS011;50936;51.660;5.616;2022-07-23T07:51:06;4.72;;;2.65;;
64543;SDS011;50936;51.660;5.616;2022-07-23T07:53:34;6.03;;;2.60;;
64543;SDS011;50936;51.660;5.616;2022-07-23T07:56:01;8.35;;;2.53;;
64543;SDS011;50936;51.660;5.616;2022-07-23T07:58:28;5.40;;;2.63;;
64543;SDS011;50936;51.660;5.616;2022-07-23T08:00:55;6.20;;;2.25;;
64543;SDS011;50936;51.660;5.616;2022-07-23T08:03:22;6.10;;;2.80;;
64543;SDS011;50936;51.660;5.616;2022-07-23T08:05:49;6.70;;;2.80;;
64543;SDS011;50936;51.660;5.616;2022-07-23T08:08:16;5.65;;;2.22;;
64543;SDS011;50936;51.660;5.616;2022-07-23T08:10:43;3.78;;;2.50;;
64543;SDS011;50936;51.660;5.616;2022-07-23T08:13:13;6.82;;;2.35;;
64543;SDS011;50936;51.660;5.616;2022-07-23T08:15:42;5.07;;;2.70;;
64543;SDS011;50936;51.660;5.616;2022-07-23T08:18:12;6.30;;;2.83;;
64543;SDS011;50936;51.660;5.616;2022-07-23T08:20:39;5.88;;;2.70;;
64543;SDS011;50936;51.660;5.616;2022-07-23T08:23:06;5.45;;;2.95;;
64543;SDS011;50936;51.660;5.616;2022-07-23T08:25:38;6.35;;;2.40;;
64543;SDS011;50936;51.660;5.616;2022-07-23T08:28:09;9.15;;;2.75;;
64543;SDS011;50936;51.660;5.616;2022-07-23T08:30:39;4.93;;;2.90;;
64543;SDS011;50936;51.660;5.616;2022-07-23T08:33:10;5.88;;;2.45;;
64543;SDS011;50936;51.660;5.616;2022-07-23T08:38:30;5.38;;;2.42;;
64543;SDS011;50936;51.660;5.616;2022-07-23T08:40:59;5.25;;;2.60;;
64543;SDS011;50936;51.660;5.616;2022-07-23T08:43:30;6.72;;;2.60;;
64543;SDS011;50936;51.660;5.616;2022-07-23T08:45:59;3.88;;;2.20;;
64543;SDS011;50936;51.660;5.616;2022-07-23T08:48:33;7.65;;;2.70;;
64543;SDS011;50936;51.660;5.616;2022-07-23T08:51:05;4.95;;;2.63;;
64543;SDS011;50936;51.660;5.616;2022-07-23T08:53:34;5.57;;;2.88;;
64543;SDS011;50936;51.660;5.616;2022-07-23T08:56:05;4.03;;;2.45;;
64543;SDS011;50936;51.660;5.616;2022-07-23T08:58:35;5.55;;;2.65;;
64543;SDS011;50936;51.660;5.616;2022-07-23T09:01:03;5.20;;;2.72;;
64543;SDS011;50936;51.660;5.616;2022-07-23T09:03:31;8.10;;;2.90;;
64543;SDS011;50936;51.660;5.616;2022-07-23T09:06:01;6.32;;;2.90;;
64543;SDS011;50936;51.660;5.616;2022-07-23T09:08:35;6.75;;;2.53;;
64543;SDS011;50936;51.660;5.616;2022-07-23T09:11:06;6.07;;;2.95;;
64543;SDS011;50936;51.660;5.616;2022-07-23T09:19:06;5.97;;;2.75;;
64543;SDS011;50936;51.660;5.616;2022-07-23T09:21:34;4.97;;;2.60;;
64543;SDS011;50936;51.660;5.616;2022-07-23T09:24:04;9.05;;;2.78;;
64543;SDS011;50936;51.660;5.616;2022-07-23T09:26:37;6.78;;;2.90;;
64543;SDS011;50936;51.660;5.616;2022-07-23T09:31:43;6.20;;;2.50;;
64543;SDS011;50936;51.660;5.616;2022-07-23T09:34:30;6.10;;;2.78;;
64543;SDS011;50936;51.660;5.616;2022-07-23T09:39:43;5.65;;;2.80;;
64543;SDS011;50936;51.660;5.616;2022-07-23T09:42:23;5.28;;;2.72;;
64543;SDS011;50936;51.660;5.616;2022-07-23T09:44:55;6.50;;;2.65;;
64543;SDS011;50936;51.660;5.616;2022-07-23T09:47:24;7.70;;;3.40;;
64543;SDS011;50936;51.660;5.616;2022-07-23T09:50:04;4.97;;;3.10;;
64543;SDS011;50936;51.660;5.616;2022-07-23T09:52:46;8.52;;;3.45;;
64543;SDS011;50936;51.660;5.616;2022-07-23T09:55:16;4.65;;;2.78;;
64543;SDS011;50936;51.660;5.616;2022-07-23T09:57:44;6.57;;;2.92;;
64543;SDS011;50936;51.660;5.616;2022-07-23T10:00:16;5.45;;;2.40;;
64543;SDS011;50936;51.660;5.616;2022-07-23T10:02:43;6.25;;;2.80;;
64543;SDS011;50936;51.660;5.616;2022-07-23T10:05:28;5.50;;;2.72;;
64543;SDS011;50936;51.660;5.616;2022-07-23T10:08:12;5.30;;;2.97;;
64543;SDS011;50936;51.660;5.616;2022-07-23T10:11:01;4.05;;;2.47;;
64543;SDS011;50936;51.660;5.616;2022-07-23T10:13:46;6.90;;;2.80;;
64543;SDS011;50936;51.660;5.616;2022-07-23T10:16:47;6.32;;;2.55;;
64543;SDS011;50936;51.660;5.616;2022-07-23T10:19:14;5.80;;;2.30;;
64543;SDS011;50936;51.660;5.616;2022-07-23T10:21:50;5.45;;;2.15;;
64543;SDS011;50936;51.660;5.616;2022-07-23T10:24:34;4.72;;;2.40;;
64543;SDS011;50936;51.660;5.616;2022-07-23T10:41:41;5.78;;;2.90;;
64543;SDS011;50936;51.660;5.616;2022-07-23T10:44:09;4.80;;;2.85;;
64543;SDS011;50936;51.660;5.616;2022-07-23T10:46:56;4.43;;;2.75;;
64543;SDS011;50936;51.660;5.616;2022-07-23T10:49:34;6.38;;;2.90;;
64543;SDS011;50936;51.660;5.616;2022-07-23T10:54:51;5.75;;;3.13;;
64543;SDS011;50936;51.660;5.616;2022-07-23T10:57:24;6.18;;;2.95;;
64543;SDS011;50936;51.660;5.616;2022-07-23T11:02:34;5.68;;;3.22;;
64543;SDS011;50936;51.660;5.616;2022-07-23T11:05:07;5.10;;;2.70;;
64543;SDS011;50936;51.660;5.616;2022-07-23T11:08:09;5.25;;;2.70;;
64543;SDS011;50936;51.660;5.616;2022-07-23T11:34:44;6.97;;;4.05;;
64543;SDS011;50936;51.660;5.616;2022-07-23T11:40:04;9.48;;;4.80;;
64543;SDS011;50936;51.660;5.616;2022-07-23T11:42:37;6.10;;;3.53;;
64543;SDS011;50936;51.660;5.616;2022-07-23T11:45:07;8.20;;;3.80;;
64543;SDS011;50936;51.660;5.616;2022-07-23T11:47:35;6.70;;;3.35;;
64543;SDS011;50936;51.660;5.616;2022-07-23T11:50:03;8.52;;;4.00;;
64543;SDS011;50936;51.660;5.616;2022-07-23T11:52:34;6.93;;;4.38;;
64543;SDS011;50936;51.660;5.616;2022-07-23T11:55:03;7.47;;;3.97;;
64543;SDS011;50936;51.660;5.616;2022-07-23T11:57:39;7.43;;;3.45;;
64543;SDS011;50936;51.660;5.616;2022-07-23T12:02:42;6.70;;;2.97;;
64543;SDS011;50936;51.660;5.616;2022-07-23T12:05:21;5.57;;;3.22;;
64543;SDS011;50936;51.660;5.616;2022-07-23T12:07:51;6.95;;;3.30;;
64543;SDS011;50936;51.660;5.616;2022-07-23T12:10:22;7.75;;;2.78;;
64543;SDS011;50936;51.660;5.616;2022-07-23T12:12:53;7.63;;;3.25;;
64543;SDS011;50936;51.660;5.616;2022-07-23T12:15:30;7.95;;;3.80;;
64543;SDS011;50936;51.660;5.616;2022-07-23T12:18:07;4.85;;;2.85;;
64543;SDS011;50936;51.660;5.616;2022-07-23T12:20:41;4.78;;;2.65;;
64543;SDS011;50936;51.660;5.616;2022-07-23T12:23:14;5.47;;;3.40;;
64543;SDS011;50936;51.660;5.616;2022-07-23T12:25:47;7.45;;;3.38;;
64543;SDS011;50936;51.660;5.616;2022-07-23T12:28:27;6.07;;;3.80;;
64543;SDS011;50936;51.660;5.616;2022-07-23T12:30:59;6.03;;;3.55;;
64543;SDS011;50936;51.660;5.616;2022-07-23T12:33:28;5.55;;;3.40;;
64543;SDS011;50936;51.660;5.616;2022-07-23T12:35:59;5.05;;;2.95;;
64543;SDS011;50936;51.660;5.616;2022-07-23T12:38:37;8.50;;;3.60;;
64543;SDS011;50936;51.660;5.616;2022-07-23T12:41:15;5.00;;;2.85;;
64543;SDS011;50936;51.660;5.616;2022-07-23T12:43:44;6.07;;;3.30;;
64543;SDS011;50936;51.660;5.616;2022-07-23T12:46:16;7.32;;;3.30;;
64543;SDS011;50936;51.660;5.616;2022-07-23T12:51:19;5.47;;;2.90;;
64543;SDS011;50936;51.660;5.616;2022-07-23T12:56:34;6.68;;;3.38;;
64543;SDS011;50936;51.660;5.616;2022-07-23T13:01:33;7.47;;;3.75;;
64543;SDS011;50936;51.660;5.616;2022-07-23T13:04:10;5.25;;;3.28;;
64543;SDS011;50936;51.660;5.616;2022-07-23T13:06:49;6.10;;;3.60;;
64543;SDS011;50936;51.660;5.616;2022-07-23T13:09:22;5.32;;;2.70;;
64543;SDS011;50936;51.660;5.616;2022-07-23T13:11:53;6.90;;;3.08;;
64543;SDS011;50936;51.660;5.616;2022-07-23T13:14:22;6.38;;;2.03;;
64543;SDS011;50936;51.660;5.616;2022-07-23T13:16:53;3.95;;;2.50;;
64543;SDS011;50936;51.660;5.616;2022-07-23T13:19:41;4.32;;;2.55;;
64543;SDS011;50936;51.660;5.616;2022-07-23T13:22:07;5.00;;;2.80;;
64543;SDS011;50936;51.660;5.616;2022-07-23T13:24:35;5.03;;;2.70;;
64543;SDS011;50936;51.660;5.616;2022-07-23T13:27:04;5.15;;;2.90;;
64543;SDS011;50936;51.660;5.616;2022-07-23T13:29:36;7.63;;;3.30;;
64543;SDS011;50936;51.660;5.616;2022-07-23T13:32:03;6.13;;;3.50;;
64543;SDS011;50936;51.660;5.616;2022-07-23T13:34:38;7.10;;;2.92;;
64543;SDS011;50936;51.660;5.616;2022-07-23T13:37:07;4.65;;;2.88;;
64543;SDS011;50936;51.660;5.616;2022-07-23T13:39:34;5.85;;;3.20;;
64543;SDS011;50936;51.660;5.616;2022-07-23T13:42:04;7.05;;;3.42;;
64543;SDS011;50936;51.660;5.616;2022-07-23T13:44:36;7.18;;;3.20;;
64543;SDS011;50936;51.660;5.616;2022-07-23T13:47:03;6.25;;;3.22;;
64543;SDS011;50936;51.660;5.616;2022-07-23T13:49:30;6.38;;;4.00;;
64543;SDS011;50936;51.660;5.616;2022-07-23T13:51:57;5.60;;;3.63;;
64543;SDS011;50936;51.660;5.616;2022-07-23T13:54:24;5.60;;;2.95;;
64543;SDS011;50936;51.660;5.616;2022-07-23T13:56:54;8.07;;;3.80;;
64543;SDS011;50936;51.660;5.616;2022-07-23T13:59:23;7.47;;;3.42;;
64543;SDS011;50936;51.660;5.616;2022-07-23T14:01:52;9.75;;;3.53;;
64543;SDS011;50936;51.660;5.616;2022-07-23T14:04:40;6.25;;;3.63;;
64543;SDS011;50936;51.660;5.616;2022-07-23T14:07:08;6.35;;;3.55;;
64543;SDS011;50936;51.660;5.616;2022-07-23T14:09:35;10.85;;;4.60;;
64543;SDS011;50936;51.660;5.616;2022-07-23T14:12:03;8.02;;;3.92;;
64543;SDS011;50936;51.660;5.616;2022-07-23T14:14:32;9.15;;;3.95;;
64543;SDS011;50936;51.660;5.616;2022-07-23T14:17:02;5.47;;;3.38;;
64543;SDS011;50936;51.660;5.616;2022-07-23T14:19:36;5.57;;;3.42;;
64543;SDS011;50936;51.660;5.616;2022-07-23T14:22:03;6.53;;;3.33;;
64543;SDS011;50936;51.660;5.616;2022-07-23T14:24:31;8.38;;;3.95;;
64543;SDS011;50936;51.660;5.616;2022-07-23T14:27:01;5.63;;;4.20;;
64543;SDS011;50936;51.660;5.616;2022-07-23T14:29:50;8.38;;;4.40;;
64543;SDS011;50936;51.660;5.616;2022-07-23T14:32:18;8.15;;;4.22;;
64543;SDS011;50936;51.660;5.616;2022-07-23T14:34:47;6.72;;;3.45;;
64543;SDS011;50936;51.660;5.616;2022-07-23T14:37:15;5.40;;;3.13;;
64543;SDS011;50936;51.660;5.616;2022-07-23T14:39:42;5.85;;;3.75;;
64543;SDS011;50936;51.660;5.616;2022-07-23T14:42:11;5.75;;;2.97;;
64543;SDS011;50936;51.660;5.616;2022-07-23T14:44:39;5.25;;;3.30;;
64543;SDS011;50936;51.660;5.616;2022-07-23T14:47:06;5.60;;;3.15;;
64543;SDS011;50936;51.660;5.616;2022-07-23T14:49:35;5.53;;;3.40;;
64543;SDS011;50936;51.660;5.616;2022-07-23T14:52:03;6.32;;;3.05;;
64543;SDS011;50936;51.660;5.616;2022-07-23T14:54:31;5.93;;;3.38;;
64543;SDS011;50936;51.660;5.616;2022-07-23T14:56:59;9.65;;;3.78;;
64543;SDS011;50936;51.660;5.616;2022-07-23T14:59:28;6.32;;;3.40;;
64543;SDS011;50936;51.660;5.616;2022-07-23T15:01:57;6.75;;;3.28;;
64543;SDS011;50936;51.660;5.616;2022-07-23T15:04:25;6.45;;;3.63;;
64543;SDS011;50936;51.660;5.616;2022-07-23T15:07:08;8.27;;;3.28;;
64543;SDS011;50936;51.660;5.616;2022-07-23T15:09:35;6.35;;;3.15;;
64543;SDS011;50936;51.660;5.616;2022-07-23T15:12:02;5.88;;;2.97;;
64543;SDS011;50936;51.660;5.616;2022-07-23T15:14:33;7.13;;;3.22;;
64543;SDS011;50936;51.660;5.616;2022-07-23T15:17:00;6.15;;;3.33;;
64543;SDS011;50936;51.660;5.616;2022-07-23T15:19:27;5.43;;;3.30;;
64543;SDS011;50936;51.660;5.616;2022-07-23T15:21:56;5.53;;;3.30;;
64543;SDS011;50936;51.660;5.616;2022-07-23T15:24:23;5.50;;;3.42;;
64543;SDS011;50936;51.660;5.616;2022-07-23T15:26:50;6.15;;;3.72;;
64543;SDS011;50936;51.660;5.616;2022-07-23T15:29:17;6.63;;;3.53;;
64543;SDS011;50936;51.660;5.616;2022-07-23T15:31:46;8.57;;;3.30;;
64543;SDS011;50936;51.660;5.616;2022-07-23T15:34:22;5.90;;;3.42;;
64543;SDS011;50936;51.660;5.616;2022-07-23T15:36:49;5.65;;;3.03;;
64543;SDS011;50936;51.660;5.616;2022-07-23T15:39:18;6.57;;;3.40;;
64543;SDS011;50936;51.660;5.616;2022-07-23T15:41:45;4.85;;;3.20;;
64543;SDS011;50936;51.660;5.616;2022-07-23T15:44:13;5.07;;;3.15;;
64543;SDS011;50936;51.660;5.616;2022-07-23T15:46:55;6.88;;;3.55;;
64543;SDS011;50936;51.660;5.616;2022-07-23T15:49:24;6.65;;;3.03;;
64543;SDS011;50936;51.660;5.616;2022-07-23T15:51:53;6.10;;;3.38;;
64543;SDS011;50936;51.660;5.616;2022-07-23T15:54:21;6.40;;;3.42;;
64543;SDS011;50936;51.660;5.616;2022-07-23T15:56:48;5.55;;;3.10;;
64543;SDS011;50936;51.660;5.616;2022-07-23T15:59:15;6.20;;;3.10;;
64543;SDS011;50936;51.660;5.616;2022-07-23T16:01:42;5.65;;;2.88;;
64543;SDS011;50936;51.660;5.616;2022-07-23T16:04:09;6.20;;;2.97;;
64543;SDS011;50936;51.660;5.616;2022-07-23T16:06:36;6.53;;;3.42;;
64543;SDS011;50936;51.660;5.616;2022-07-23T16:09:03;5.47;;;3.22;;
64543;SDS011;50936;51.660;5.616;2022-07-23T16:11:35;5.72;;;2.80;;
64543;SDS011;50936;51.660;5.616;2022-07-23T16:14:02;6.60;;;3.25;;